sensor_id;sensor_type;location;lat;lon;timestamp;temperature;humidity
46231;DHT22;31949;51.404;-0.038;2023-04-01T00:01:52;10.80;99.90
46231;DHT22;31949;51.404;-0.038;2023-04-01T00:04:20;10.80;99.90
46231;DHT22;31949;51.404;-0.038;2023-04-01T00:06:47;10.80;99.90
46231;DHT22;31949;51.404;-0.038;2023-04-01T00:09:14;10.80;99.90
46231;DHT22;31949;51.404;-0.038;2023-04-01T00:11:42;10.80;99.90
46231;DHT22;31949;51.404;-0.038;2023-04-01T00:14:09;10.70;99.90
46231;DHT22;31949;51.404;-0.038;2023-04-01T00:16:37;10.80;99.90
46231;DHT22;31949;51.404;-0.038;2023-04-01T00:19:04;10.70;99.90
46231;DHT22;31949;51.404;-0.038;2023-04-01T00:21:32;10.70;99.90
46231;DHT22;31949;51.404;-0.038;2023-04-01T00:23:59;10.70;99.90
46231;DHT22;31949;51.404;-0.038;2023-04-01T00:26:27;10.70;99.90
46231;DHT22;31949;51.404;-0.038;2023-04-01T00:28:54;10.70;99.90
46231;DHT22;31949;51.404;-0.038;2023-04-01T00:31:22;10.70;99.90
46231;DHT22;31949;51.404;-0.038;2023-04-01T00:33:49;10.70;99.90
46231;DHT22;31949;51.404;-0.038;2023-04-01T00:36:20;10.70;99.90
46231;DHT22;31949;51.404;-0.038;2023-04-01T00:38:49;10.70;99.90
46231;DHT22;31949;51.404;-0.038;2023-04-01T00:41:20;10.70;99.90
46231;DHT22;31949;51.404;-0.038;2023-04-01T00:43:50;10.70;99.90
46231;DHT22;31949;51.404;-0.038;2023-04-01T00:46:18;10.70;99.90
46231;DHT22;31949;51.404;-0.038;2023-04-01T00:48:49;10.70;99.90
46231;DHT22;31949;51.404;-0.038;2023-04-01T00:51:22;10.70;99.90
46231;DHT22;31949;51.404;-0.038;2023-04-01T00:53:53;10.60;99.90
46231;DHT22;31949;51.404;-0.038;2023-04-01T00:56:27;10.60;99.90
46231;DHT22;31949;51.404;-0.038;2023-04-01T00:59:42;10.60;99.90
46231;DHT22;31949;51.404;-0.038;2023-04-01T01:01:49;10.70;99.90
46231;DHT22;31949;51.404;-0.038;2023-04-01T01:04:29;10.70;99.90
46231;DHT22;31949;51.404;-0.038;2023-04-01T01:12:54;10.70;99.90
46231;DHT22;31949;51.404;-0.038;2023-04-01T01:15:34;10.60;99.90
46231;DHT22;31949;51.404;-0.038;2023-04-01T01:23:33;10.60;99.90
46231;DHT22;31949;51.404;-0.038;2023-04-01T01:26:25;10.70;99.90
46231;DHT22;31949;51.404;-0.038;2023-04-01T01:37:38;10.70;99.90
46231;DHT22;31949;51.404;-0.038;2023-04-01T01:40:07;10.70;99.90
46231;DHT22;31949;51.404;-0.038;2023-04-01T01:42:39;10.70;99.90
46231;DHT22;31949;51.404;-0.038;2023-04-01T01:45:09;10.70;99.90
46231;DHT22;31949;51.404;-0.038;2023-04-01T01:47:38;10.70;99.90
46231;DHT22;31949;51.404;-0.038;2023-04-01T01:50:07;10.70;99.90
46231;DHT22;31949;51.404;-0.038;2023-04-01T01:52:35;10.60;99.90
46231;DHT22;31949;51.404;-0.038;2023-04-01T01:55:03;10.50;99.90
46231;DHT22;31949;51.404;-0.038;2023-04-01T01:57:42;10.50;99.90
46231;DHT22;31949;51.404;-0.038;2023-04-01T02:00:15;10.40;99.90
46231;DHT22;31949;51.404;-0.038;2023-04-01T02:02:46;10.30;99.90
46231;DHT22;31949;51.404;-0.038;2023-04-01T02:05:20;10.30;99.90
46231;DHT22;31949;51.404;-0.038;2023-04-01T02:07:54;10.20;99.90
46231;DHT22;31949;51.404;-0.038;2023-04-01T02:10:25;10.20;99.90
46231;DHT22;31949;51.404;-0.038;2023-04-01T02:12:58;10.10;99.90
46231;DHT22;31949;51.404;-0.038;2023-04-01T02:15:29;10.10;99.90
46231;DHT22;31949;51.404;-0.038;2023-04-01T02:17:59;10.00;99.90
46231;DHT22;31949;51.404;-0.038;2023-04-01T02:20:27;10.00;99.90
46231;DHT22;31949;51.404;-0.038;2023-04-01T02:22:57;10.00;99.90
46231;DHT22;31949;51.404;-0.038;2023-04-01T02:25:29;10.00;99.90
46231;DHT22;31949;51.404;-0.038;2023-04-01T02:27:59;10.00;99.90
46231;DHT22;31949;51.404;-0.038;2023-04-01T02:30:29;10.00;99.90
46231;DHT22;31949;51.404;-0.038;2023-04-01T02:32:58;10.00;99.90
46231;DHT22;31949;51.404;-0.038;2023-04-01T02:35:26;10.00;99.90
46231;DHT22;31949;51.404;-0.038;2023-04-01T02:37:54;9.90;99.90
46231;DHT22;31949;51.404;-0.038;2023-04-01T02:40:22;10.00;99.90
46231;DHT22;31949;51.404;-0.038;2023-04-01T02:42:49;10.00;99.90
46231;DHT22;31949;51.404;-0.038;2023-04-01T02:45:17;10.00;99.90
46231;DHT22;31949;51.404;-0.038;2023-04-01T02:47:44;10.00;99.90
46231;DHT22;31949;51.404;-0.038;2023-04-01T02:50:12;10.00;99.90
46231;DHT22;31949;51.404;-0.038;2023-04-01T02:52:39;10.00;99.90
46231;DHT22;31949;51.404;-0.038;2023-04-01T02:55:07;10.00;99.90
46231;DHT22;31949;51.404;-0.038;2023-04-01T02:57:34;10.00;99.90
46231;DHT22;31949;51.404;-0.038;2023-04-01T03:00:02;10.00;99.90
46231;DHT22;31949;51.404;-0.038;2023-04-01T03:02:30;10.00;99.90
46231;DHT22;31949;51.404;-0.038;2023-04-01T03:04:57;10.00;99.90
46231;DHT22;31949;51.404;-0.038;2023-04-01T03:07:24;10.00;99.90
46231;DHT22;31949;51.404;-0.038;2023-04-01T03:09:52;10.00;99.90
46231;DHT22;31949;51.404;-0.038;2023-04-01T03:12:19;10.00;99.90
46231;DHT22;31949;51.404;-0.038;2023-04-01T03:14:50;10.10;99.90
46231;DHT22;31949;51.404;-0.038;2023-04-01T03:17:17;10.10;99.90
46231;DHT22;31949;51.404;-0.038;2023-04-01T03:19:45;10.10;99.90
46231;DHT22;31949;51.404;-0.038;2023-04-01T03:22:13;10.00;99.90
46231;DHT22;31949;51.404;-0.038;2023-04-01T03:24:40;10.00;99.90
46231;DHT22;31949;51.404;-0.038;2023-04-01T03:27:07;10.00;99.90
46231;DHT22;31949;51.404;-0.038;2023-04-01T03:29:34;10.10;99.90
46231;DHT22;31949;51.404;-0.038;2023-04-01T03:32:02;10.00;99.90
46231;DHT22;31949;51.404;-0.038;2023-04-01T03:34:29;10.00;99.90
46231;DHT22;31949;51.404;-0.038;2023-04-01T03:36:57;9.90;99.90
46231;DHT22;31949;51.404;-0.038;2023-04-01T03:39:24;9.90;99.90
46231;DHT22;31949;51.404;-0.038;2023-04-01T03:41:52;9.90;99.90
46231;DHT22;31949;51.404;-0.038;2023-04-01T03:44:19;9.80;99.90
46231;DHT22;31949;51.404;-0.038;2023-04-01T03:46:52;9.90;99.90
46231;DHT22;31949;51.404;-0.038;2023-04-01T03:49:19;9.90;99.90
46231;DHT22;31949;51.404;-0.038;2023-04-01T03:51:46;9.90;99.90
46231;DHT22;31949;51.404;-0.038;2023-04-01T03:54:13;9.90;99.90
46231;DHT22;31949;51.404;-0.038;2023-04-01T03:56:42;9.80;99.90
46231;DHT22;31949;51.404;-0.038;2023-04-01T03:59:10;9.90;99.90
46231;DHT22;31949;51.404;-0.038;2023-04-01T04:01:38;9.90;99.90
46231;DHT22;31949;51.404;-0.038;2023-04-01T04:04:06;9.90;99.90
46231;DHT22;31949;51.404;-0.038;2023-04-01T04:06:33;9.80;99.90
46231;DHT22;31949;51.404;-0.038;2023-04-01T04:09:01;9.80;99.90
46231;DHT22;31949;51.404;-0.038;2023-04-01T04:11:30;9.80;99.90
46231;DHT22;31949;51.404;-0.038;2023-04-01T04:13:59;9.90;99.90
46231;DHT22;31949;51.404;-0.038;2023-04-01T04:16:26;9.90;99.90
46231;DHT22;31949;51.404;-0.038;2023-04-01T04:18:58;9.90;99.90
46231;DHT22;31949;51.404;-0.038;2023-04-01T04:21:25;9.90;99.90
46231;DHT22;31949;51.404;-0.038;2023-04-01T04:23:52;9.90;99.90
46231;DHT22;31949;51.404;-0.038;2023-04-01T04:26:20;9.90;99.90
46231;DHT22;31949;51.404;-0.038;2023-04-01T04:28:56;10.00;99.90
46231;DHT22;31949;51.404;-0.038;2023-04-01T04:31:26;10.00;99.90
46231;DHT22;31949;51.404;-0.038;2023-04-01T04:33:55;9.90;99.90
46231;DHT22;31949;51.404;-0.038;2023-04-01T04:36:23;9.90;99.90
46231;DHT22;31949;51.404;-0.038;2023-04-01T04:38:51;9.80;99.90
46231;DHT22;31949;51.404;-0.038;2023-04-01T04:41:19;9.80;99.90
46231;DHT22;31949;51.404;-0.038;2023-04-01T04:43:54;9.80;99.90
46231;DHT22;31949;51.404;-0.038;2023-04-01T04:46:22;9.80;99.90
46231;DHT22;31949;51.404;-0.038;2023-04-01T04:48:56;9.80;99.90
46231;DHT22;31949;51.404;-0.038;2023-04-01T04:51:23;9.80;99.90
46231;DHT22;31949;51.404;-0.038;2023-04-01T04:53:51;9.80;99.90
46231;DHT22;31949;51.404;-0.038;2023-04-01T04:56:27;9.80;99.90
46231;DHT22;31949;51.404;-0.038;2023-04-01T04:59:03;9.80;99.90
46231;DHT22;31949;51.404;-0.038;2023-04-01T05:01:40;9.80;99.90
46231;DHT22;31949;51.404;-0.038;2023-04-01T05:04:07;9.80;99.90
46231;DHT22;31949;51.404;-0.038;2023-04-01T05:06:35;9.80;99.90
46231;DHT22;31949;51.404;-0.038;2023-04-01T05:09:03;9.80;99.90
46231;DHT22;31949;51.404;-0.038;2023-04-01T05:11:30;9.80;99.90
46231;DHT22;31949;51.404;-0.038;2023-04-01T05:13:57;9.80;99.90
46231;DHT22;31949;51.404;-0.038;2023-04-01T05:16:25;9.80;99.90
46231;DHT22;31949;51.404;-0.038;2023-04-01T05:18:52;9.90;99.90
46231;DHT22;31949;51.404;-0.038;2023-04-01T05:21:19;9.90;99.90
46231;DHT22;31949;51.404;-0.038;2023-04-01T05:23:47;9.90;99.90
46231;DHT22;31949;51.404;-0.038;2023-04-01T05:26:14;9.90;99.90
46231;DHT22;31949;51.404;-0.038;2023-04-01T05:28:42;9.80;99.90
46231;DHT22;31949;51.404;-0.038;2023-04-01T05:31:09;9.80;99.90
46231;DHT22;31949;51.404;-0.038;2023-04-01T05:33:43;9.80;99.90
46231;DHT22;31949;51.404;-0.038;2023-04-01T05:36:14;9.80;99.90
46231;DHT22;31949;51.404;-0.038;2023-04-01T05:38:43;9.80;99.90
46231;DHT22;31949;51.404;-0.038;2023-04-01T05:41:13;9.90;99.90
46231;DHT22;31949;51.404;-0.038;2023-04-01T05:43:44;9.80;99.90
46231;DHT22;31949;51.404;-0.038;2023-04-01T05:46:43;9.80;99.90
46231;DHT22;31949;51.404;-0.038;2023-04-01T05:49:22;9.80;99.90
46231;DHT22;31949;51.404;-0.038;2023-04-01T05:51:50;9.80;99.90
46231;DHT22;31949;51.404;-0.038;2023-04-01T05:54:19;9.80;99.90
46231;DHT22;31949;51.404;-0.038;2023-04-01T05:56:47;9.70;99.90
46231;DHT22;31949;51.404;-0.038;2023-04-01T05:59:14;9.80;99.90
46231;DHT22;31949;51.404;-0.038;2023-04-01T06:01:42;9.80;99.90
46231;DHT22;31949;51.404;-0.038;2023-04-01T06:04:14;9.80;99.90
46231;DHT22;31949;51.404;-0.038;2023-04-01T06:06:42;9.70;99.90
46231;DHT22;31949;51.404;-0.038;2023-04-01T06:09:16;9.60;99.90
46231;DHT22;31949;51.404;-0.038;2023-04-01T06:15:34;9.60;99.90
46231;DHT22;31949;51.404;-0.038;2023-04-01T06:26:35;9.50;99.90
46231;DHT22;31949;51.404;-0.038;2023-04-01T06:34:37;9.60;99.90
46231;DHT22;31949;51.404;-0.038;2023-04-01T06:42:45;9.50;99.90
46231;DHT22;31949;51.404;-0.038;2023-04-01T06:48:42;9.60;99.90
46231;DHT22;31949;51.404;-0.038;2023-04-01T06:59:52;9.60;99.90
46231;DHT22;31949;51.404;-0.038;2023-04-01T07:02:41;9.60;99.90
46231;DHT22;31949;51.404;-0.038;2023-04-01T07:05:11;9.60;99.90
46231;DHT22;31949;51.404;-0.038;2023-04-01T07:07:46;9.60;99.90
46231;DHT22;31949;51.404;-0.038;2023-04-01T07:10:52;9.60;99.90
46231;DHT22;31949;51.404;-0.038;2023-04-01T07:14:01;9.60;99.90
46231;DHT22;31949;51.404;-0.038;2023-04-01T07:19:12;9.60;99.90
46231;DHT22;31949;51.404;-0.038;2023-04-01T07:22:05;9.60;99.90
46231;DHT22;31949;51.404;-0.038;2023-04-01T07:25:04;9.50;99.90
46231;DHT22;31949;51.404;-0.038;2023-04-01T07:27:32;9.60;99.90
46231;DHT22;31949;51.404;-0.038;2023-04-01T07:30:01;9.60;99.90
46231;DHT22;31949;51.404;-0.038;2023-04-01T07:35:40;9.60;99.90
46231;DHT22;31949;51.404;-0.038;2023-04-01T07:38:40;9.70;99.90
46231;DHT22;31949;51.404;-0.038;2023-04-01T07:44:21;9.70;99.90
46231;DHT22;31949;51.404;-0.038;2023-04-01T08:00:59;9.60;99.90
46231;DHT22;31949;51.404;-0.038;2023-04-01T08:03:53;9.60;99.90
46231;DHT22;31949;51.404;-0.038;2023-04-01T08:09:14;9.60;99.90
46231;DHT22;31949;51.404;-0.038;2023-04-01T08:15:10;9.70;99.90
46231;DHT22;31949;51.404;-0.038;2023-04-01T08:21:03;9.60;99.90
46231;DHT22;31949;51.404;-0.038;2023-04-01T08:23:43;9.70;99.90
46231;DHT22;31949;51.404;-0.038;2023-04-01T08:26:41;9.80;99.90
46231;DHT22;31949;51.404;-0.038;2023-04-01T08:29:20;9.90;99.90
46231;DHT22;31949;51.404;-0.038;2023-04-01T08:32:06;9.80;99.90
46231;DHT22;31949;51.404;-0.038;2023-04-01T08:34:40;9.80;99.90
46231;DHT22;31949;51.404;-0.038;2023-04-01T08:37:31;9.90;99.90
46231;DHT22;31949;51.404;-0.038;2023-04-01T08:40:18;9.80;99.90
46231;DHT22;31949;51.404;-0.038;2023-04-01T08:43:10;9.80;99.90
46231;DHT22;31949;51.404;-0.038;2023-04-01T08:57:13;9.90;99.90
46231;DHT22;31949;51.404;-0.038;2023-04-01T09:04:35;10.00;99.90
46231;DHT22;31949;51.404;-0.038;2023-04-01T09:06:50;10.00;99.90
46231;DHT22;31949;51.404;-0.038;2023-04-01T09:09:33;9.90;99.90
46231;DHT22;31949;51.404;-0.038;2023-04-01T09:12:35;9.90;99.90
46231;DHT22;31949;51.404;-0.038;2023-04-01T09:18:22;9.90;99.90
46231;DHT22;31949;51.404;-0.038;2023-04-01T09:32:19;10.20;99.90
46231;DHT22;31949;51.404;-0.038;2023-04-01T09:38:28;10.20;99.90
46231;DHT22;31949;51.404;-0.038;2023-04-01T09:40:57;10.20;99.90
46231;DHT22;31949;51.404;-0.038;2023-04-01T09:44:05;10.20;99.90
46231;DHT22;31949;51.404;-0.038;2023-04-01T09:53:14;10.30;99.90
46231;DHT22;31949;51.404;-0.038;2023-04-01T10:16:10;10.20;99.90
46231;DHT22;31949;51.404;-0.038;2023-04-01T10:18:56;10.20;99.90
46231;DHT22;31949;51.404;-0.038;2023-04-01T10:21:52;10.30;99.90
46231;DHT22;31949;51.404;-0.038;2023-04-01T10:50:10;10.40;99.90
46231;DHT22;31949;51.404;-0.038;2023-04-01T11:31:58;10.40;99.90
46231;DHT22;31949;51.404;-0.038;2023-04-01T11:37:35;10.20;99.90
46231;DHT22;31949;51.404;-0.038;2023-04-01T11:58:56;10.80;99.90
46231;DHT22;31949;51.404;-0.038;2023-04-01T12:12:59;11.00;99.90
46231;DHT22;31949;51.404;-0.038;2023-04-01T12:18:35;11.00;99.90
46231;DHT22;31949;51.404;-0.038;2023-04-01T12:21:28;11.00;99.90
46231;DHT22;31949;51.404;-0.038;2023-04-01T12:29:48;10.90;99.90
46231;DHT22;31949;51.404;-0.038;2023-04-01T12:34:53;11.00;99.90
46231;DHT22;31949;51.404;-0.038;2023-04-01T12:40:39;11.20;99.90
46231;DHT22;31949;51.404;-0.038;2023-04-01T12:54:29;11.40;99.90
46231;DHT22;31949;51.404;-0.038;2023-04-01T13:00:08;11.50;99.90
46231;DHT22;31949;51.404;-0.038;2023-04-01T13:08:14;11.60;99.90
46231;DHT22;31949;51.404;-0.038;2023-04-01T13:13:53;11.50;99.90
46231;DHT22;31949;51.404;-0.038;2023-04-01T13:19:39;11.70;99.90
46231;DHT22;31949;51.404;-0.038;2023-04-01T13:28:15;11.70;99.90
46231;DHT22;31949;51.404;-0.038;2023-04-01T13:33:45;11.80;99.90
46231;DHT22;31949;51.404;-0.038;2023-04-01T13:45:00;11.90;99.90
46231;DHT22;31949;51.404;-0.038;2023-04-01T13:47:55;11.90;99.90
46231;DHT22;31949;51.404;-0.038;2023-04-01T14:01:46;12.10;99.90
46231;DHT22;31949;51.404;-0.038;2023-04-01T14:15:53;12.10;99.90
46231;DHT22;31949;51.404;-0.038;2023-04-01T14:18:45;12.20;99.90
46231;DHT22;31949;51.404;-0.038;2023-04-01T14:24:23;12.20;99.90
46231;DHT22;31949;51.404;-0.038;2023-04-01T14:27:30;12.10;99.90
46231;DHT22;31949;51.404;-0.038;2023-04-01T14:47:26;11.80;99.90
46231;DHT22;31949;51.404;-0.038;2023-04-01T14:50:19;11.70;99.90
46231;DHT22;31949;51.404;-0.038;2023-04-01T14:58:13;11.60;99.90
46231;DHT22;31949;51.404;-0.038;2023-04-01T15:01:06;11.50;99.90
46231;DHT22;31949;51.404;-0.038;2023-04-01T15:20:15;11.10;99.90
46231;DHT22;31949;51.404;-0.038;2023-04-01T15:28:43;10.90;99.90
46231;DHT22;31949;51.404;-0.038;2023-04-01T15:34:07;10.80;99.90
46231;DHT22;31949;51.404;-0.038;2023-04-01T15:47:29;10.80;99.90
46231;DHT22;31949;51.404;-0.038;2023-04-01T15:55:31;10.80;99.90
46231;DHT22;31949;51.404;-0.038;2023-04-01T16:07:41;10.60;99.90
46231;DHT22;31949;51.404;-0.038;2023-04-01T16:10:38;10.60;99.90
46231;DHT22;31949;51.404;-0.038;2023-04-01T16:21:24;10.60;99.90
46231;DHT22;31949;51.404;-0.038;2023-04-01T16:26:48;10.40;99.90
46231;DHT22;31949;51.404;-0.038;2023-04-01T16:32:29;10.40;99.90
46231;DHT22;31949;51.404;-0.038;2023-04-01T16:37:54;10.30;99.90
46231;DHT22;31949;51.404;-0.038;2023-04-01T16:46:18;10.30;99.90
46231;DHT22;31949;51.404;-0.038;2023-04-01T16:49:15;10.30;99.90
46231;DHT22;31949;51.404;-0.038;2023-04-01T16:55:00;10.20;99.90
46231;DHT22;31949;51.404;-0.038;2023-04-01T16:57:51;10.20;99.90
46231;DHT22;31949;51.404;-0.038;2023-04-01T17:03:11;10.10;99.90
46231;DHT22;31949;51.404;-0.038;2023-04-01T17:37:01;10.10;99.90
46231;DHT22;31949;51.404;-0.038;2023-04-01T17:45:09;10.20;99.90
46231;DHT22;31949;51.404;-0.038;2023-04-01T17:53:06;10.30;99.90
46231;DHT22;31949;51.404;-0.038;2023-04-01T17:55:48;10.30;99.90
46231;DHT22;31949;51.404;-0.038;2023-04-01T17:58:20;10.30;99.90
46231;DHT22;31949;51.404;-0.038;2023-04-01T18:14:36;10.30;99.90
46231;DHT22;31949;51.404;-0.038;2023-04-01T18:17:27;10.30;99.90
46231;DHT22;31949;51.404;-0.038;2023-04-01T18:25:44;10.30;99.90
46231;DHT22;31949;51.404;-0.038;2023-04-01T18:44:46;10.20;99.90
46231;DHT22;31949;51.404;-0.038;2023-04-01T18:57:50;10.20;99.90
46231;DHT22;31949;51.404;-0.038;2023-04-01T19:00:36;10.10;99.90
46231;DHT22;31949;51.404;-0.038;2023-04-01T19:03:31;10.10;99.90
46231;DHT22;31949;51.404;-0.038;2023-04-01T19:06:20;10.10;99.90
46231;DHT22;31949;51.404;-0.038;2023-04-01T19:08:48;10.10;99.90
46231;DHT22;31949;51.404;-0.038;2023-04-01T19:11:43;10.10;99.90
46231;DHT22;31949;51.404;-0.038;2023-04-01T19:17:51;10.10;99.90
46231;DHT22;31949;51.404;-0.038;2023-04-01T19:20:24;10.10;99.90
46231;DHT22;31949;51.404;-0.038;2023-04-01T19:25:44;10.00;99.90
46231;DHT22;31949;51.404;-0.038;2023-04-01T19:36:49;9.70;99.90
46231;DHT22;31949;51.404;-0.038;2023-04-01T19:45:29;9.50;99.90
46231;DHT22;31949;51.404;-0.038;2023-04-01T19:50:55;9.60;99.90
46231;DHT22;31949;51.404;-0.038;2023-04-01T19:56:19;9.50;99.90
46231;DHT22;31949;51.404;-0.038;2023-04-01T19:58:59;9.50;99.90
46231;DHT22;31949;51.404;-0.038;2023-04-01T20:04:49;9.50;99.90
46231;DHT22;31949;51.404;-0.038;2023-04-01T20:10:10;9.40;99.90
46231;DHT22;31949;51.404;-0.038;2023-04-01T20:15:37;9.30;99.90
46231;DHT22;31949;51.404;-0.038;2023-04-01T20:18:20;9.20;99.90
46231;DHT22;31949;51.404;-0.038;2023-04-01T20:21:06;9.20;99.90
46231;DHT22;31949;51.404;-0.038;2023-04-01T20:23:43;9.20;99.90
46231;DHT22;31949;51.404;-0.038;2023-04-01T20:26:14;9.20;99.90
46231;DHT22;31949;51.404;-0.038;2023-04-01T20:29:04;9.20;99.90
46231;DHT22;31949;51.404;-0.038;2023-04-01T20:54:45;9.20;99.90
46231;DHT22;31949;51.404;-0.038;2023-04-01T20:57:29;9.20;99.90
46231;DHT22;31949;51.404;-0.038;2023-04-01T21:03:10;9.10;99.90
46231;DHT22;31949;51.404;-0.038;2023-04-01T21:22:02;9.00;99.90
46231;DHT22;31949;51.404;-0.038;2023-04-01T21:35:03;9.00;99.90
46231;DHT22;31949;51.404;-0.038;2023-04-01T21:55:35;9.00;99.90
46231;DHT22;31949;51.404;-0.038;2023-04-01T22:01:06;9.00;99.90
46231;DHT22;31949;51.404;-0.038;2023-04-01T22:06:38;9.00;99.90
46231;DHT22;31949;51.404;-0.038;2023-04-01T22:12:11;8.90;99.90
46231;DHT22;31949;51.404;-0.038;2023-04-01T22:17:54;8.90;99.90
46231;DHT22;31949;51.404;-0.038;2023-04-01T22:20:36;8.80;99.90
46231;DHT22;31949;51.404;-0.038;2023-04-01T22:23:28;8.80;99.90
46231;DHT22;31949;51.404;-0.038;2023-04-01T22:26:08;8.80;99.90
46231;DHT22;31949;51.404;-0.038;2023-04-01T22:31:31;8.80;99.90
46231;DHT22;31949;51.404;-0.038;2023-04-01T22:42:40;8.90;99.90
46231;DHT22;31949;51.404;-0.038;2023-04-01T22:45:31;8.90;99.90
46231;DHT22;31949;51.404;-0.038;2023-04-01T22:48:27;8.80;99.90
46231;DHT22;31949;51.404;-0.038;2023-04-01T22:56:24;8.80;99.90
46231;DHT22;31949;51.404;-0.038;2023-04-01T22:59:44;8.80;99.90
46231;DHT22;31949;51.404;-0.038;2023-04-01T23:01:53;8.80;99.90
46231;DHT22;31949;51.404;-0.038;2023-04-01T23:04:31;8.90;99.90
46231;DHT22;31949;51.404;-0.038;2023-04-01T23:07:06;8.90;99.90
46231;DHT22;31949;51.404;-0.038;2023-04-01T23:09:43;8.80;99.90
46231;DHT22;31949;51.404;-0.038;2023-04-01T23:12:13;8.80;99.90
46231;DHT22;31949;51.404;-0.038;2023-04-01T23:14:49;8.70;99.90
46231;DHT22;31949;51.404;-0.038;2023-04-01T23:38:20;8.70;99.90
46231;DHT22;31949;51.404;-0.038;2023-04-01T23:40:50;8.60;99.90
46231;DHT22;31949;51.404;-0.038;2023-04-01T23:43:39;8.60;99.90
46231;DHT22;31949;51.404;-0.038;2023-04-01T23:46:08;8.60;99.90
46231;DHT22;31949;51.404;-0.038;2023-04-01T23:48:44;8.60;99.90
46231;DHT22;31949;51.404;-0.038;2023-04-01T23:51:27;8.50;99.90
46231;DHT22;31949;51.404;-0.038;2023-04-01T23:57:13;8.50;99.90
46231;DHT22;31949;51.404;-0.038;2023-04-01T23:59:45;8.40;99.90
